sensor_id;sensor_type;location;lat;lon;timestamp;pressure;altitude;pressure_sealevel;temperature;humidity
11011;BME280;5558;42.702;23.178;2023-07-20T00:02:04;93389.47;;;20.45;100.00
11011;BME280;5558;42.702;23.178;2023-07-20T00:04:33;93378.03;;;20.36;100.00
11011;BME280;5558;42.702;23.178;2023-07-20T00:07:01;93394.53;;;20.46;100.00
11011;BME280;5558;42.702;23.178;2023-07-20T00:09:28;93388.53;;;20.62;100.00
11011;BME280;5558;42.702;23.178;2023-07-20T00:11:55;93393.50;;;20.84;100.00
11011;BME280;5558;42.702;23.178;2023-07-20T00:14:21;93392.72;;;20.83;100.00
11011;BME280;5558;42.702;23.178;2023-07-20T00:16:50;93392.16;;;20.78;100.00
11011;BME280;5558;42.702;23.178;2023-07-20T00:19:21;93398.56;;;20.85;100.00
11011;BME280;5558;42.702;23.178;2023-07-20T00:21:48;93391.16;;;20.94;100.00
11011;BME280;5558;42.702;23.178;2023-07-20T00:24:16;93396.81;;;21.01;100.00
11011;BME280;5558;42.702;23.178;2023-07-20T00:26:43;93403.56;;;21.19;100.00
11011;BME280;5558;42.702;23.178;2023-07-20T00:29:10;93398.97;;;21.32;100.00
11011;BME280;5558;42.702;23.178;2023-07-20T00:31:37;93404.81;;;21.46;100.00
11011;BME280;5558;42.702;23.178;2023-07-20T00:34:04;93406.59;;;21.54;100.00
11011;BME280;5558;42.702;23.178;2023-07-20T00:36:30;93407.63;;;21.49;100.00
11011;BME280;5558;42.702;23.178;2023-07-20T00:38:57;93401.09;;;21.26;100.00
11011;BME280;5558;42.702;23.178;2023-07-20T00:41:25;93399.19;;;21.27;100.00
11011;BME280;5558;42.702;23.178;2023-07-20T00:43:55;93406.91;;;21.16;100.00
11011;BME280;5558;42.702;23.178;2023-07-20T00:46:23;93386.56;;;20.83;100.00
11011;BME280;5558;42.702;23.178;2023-07-20T00:48:50;93399.66;;;20.84;100.00
11011;BME280;5558;42.702;23.178;2023-07-20T00:51:18;93405.31;;;20.58;100.00
11011;BME280;5558;42.702;23.178;2023-07-20T00:53:46;93399.09;;;20.34;100.00
11011;BME280;5558;42.702;23.178;2023-07-20T00:56:13;93394.38;;;20.31;100.00
11011;BME280;5558;42.702;23.178;2023-07-20T00:58:41;93388.47;;;20.37;100.00
11011;BME280;5558;42.702;23.178;2023-07-20T01:01:08;93394.34;;;20.19;100.00
11011;BME280;5558;42.702;23.178;2023-07-20T01:03:35;93391.34;;;20.12;100.00
11011;BME280;5558;42.702;23.178;2023-07-20T01:06:08;93395.75;;;20.16;100.00
11011;BME280;5558;42.702;23.178;2023-07-20T01:09:04;93398.50;;;20.28;100.00
11011;BME280;5558;42.702;23.178;2023-07-20T01:11:38;93400.81;;;20.18;100.00
11011;BME280;5558;42.702;23.178;2023-07-20T01:14:09;93388.53;;;20.29;100.00
11011;BME280;5558;42.702;23.178;2023-07-20T01:16:36;93390.69;;;20.15;100.00
11011;BME280;5558;42.702;23.178;2023-07-20T01:19:03;93389.88;;;20.02;100.00
11011;BME280;5558;42.702;23.178;2023-07-20T01:21:34;93393.88;;;20.17;100.00
11011;BME280;5558;42.702;23.178;2023-07-20T01:27:31;93384.50;;;20.14;100.00
11011;BME280;5558;42.702;23.178;2023-07-20T01:30:25;93403.28;;;20.23;100.00
11011;BME280;5558;42.702;23.178;2023-07-20T01:33:00;93380.28;;;20.13;100.00
11011;BME280;5558;42.702;23.178;2023-07-20T01:35:29;93392.34;;;20.28;100.00
11011;BME280;5558;42.702;23.178;2023-07-20T01:37:57;93397.28;;;20.26;100.00
11011;BME280;5558;42.702;23.178;2023-07-20T01:40:25;93396.56;;;20.17;100.00
11011;BME280;5558;42.702;23.178;2023-07-20T01:42:52;93402.41;;;20.19;100.00
11011;BME280;5558;42.702;23.178;2023-07-20T01:45:19;93394.66;;;20.17;100.00
11011;BME280;5558;42.702;23.178;2023-07-20T01:47:45;93387.47;;;20.01;100.00
11011;BME280;5558;42.702;23.178;2023-07-20T01:50:14;93365.69;;;19.82;100.00
11011;BME280;5558;42.702;23.178;2023-07-20T01:52:40;93386.25;;;19.78;100.00
11011;BME280;5558;42.702;23.178;2023-07-20T01:55:08;93395.63;;;19.72;100.00
11011;BME280;5558;42.702;23.178;2023-07-20T01:57:35;93390.84;;;19.57;100.00
11011;BME280;5558;42.702;23.178;2023-07-20T02:00:02;93394.16;;;19.54;100.00
11011;BME280;5558;42.702;23.178;2023-07-20T02:02:29;93394.88;;;19.63;100.00
11011;BME280;5558;42.702;23.178;2023-07-20T02:04:56;93379.50;;;19.72;100.00
11011;BME280;5558;42.702;23.178;2023-07-20T02:07:24;93384.72;;;19.48;100.00
11011;BME280;5558;42.702;23.178;2023-07-20T02:09:51;93382.03;;;19.48;100.00
11011;BME280;5558;42.702;23.178;2023-07-20T02:12:18;93375.16;;;19.59;100.00
11011;BME280;5558;42.702;23.178;2023-07-20T02:14:45;93377.97;;;19.62;100.00
11011;BME280;5558;42.702;23.178;2023-07-20T02:17:12;93383.41;;;19.54;100.00
11011;BME280;5558;42.702;23.178;2023-07-20T02:19:40;93390.31;;;19.63;100.00
11011;BME280;5558;42.702;23.178;2023-07-20T02:22:07;93385.41;;;19.65;100.00
11011;BME280;5558;42.702;23.178;2023-07-20T02:24:35;93382.72;;;19.65;100.00
11011;BME280;5558;42.702;23.178;2023-07-20T02:27:01;93376.63;;;19.56;100.00
11011;BME280;5558;42.702;23.178;2023-07-20T02:29:28;93383.59;;;19.49;100.00
11011;BME280;5558;42.702;23.178;2023-07-20T02:31:55;93383.41;;;19.54;100.00
11011;BME280;5558;42.702;23.178;2023-07-20T02:34:22;93390.56;;;19.50;100.00
11011;BME280;5558;42.702;23.178;2023-07-20T02:36:49;93370.19;;;19.19;100.00
11011;BME280;5558;42.702;23.178;2023-07-20T02:39:16;93377.19;;;19.03;100.00
11011;BME280;5558;42.702;23.178;2023-07-20T02:41:44;93376.88;;;18.59;100.00
11011;BME280;5558;42.702;23.178;2023-07-20T02:44:11;93370.13;;;18.61;100.00
11011;BME280;5558;42.702;23.178;2023-07-20T02:46:37;93368.06;;;18.58;100.00
11011;BME280;5558;42.702;23.178;2023-07-20T02:49:04;93355.94;;;18.52;100.00
11011;BME280;5558;42.702;23.178;2023-07-20T02:51:31;93366.06;;;18.47;100.00
11011;BME280;5558;42.702;23.178;2023-07-20T02:53:58;93356.09;;;18.39;100.00
11011;BME280;5558;42.702;23.178;2023-07-20T02:56:25;93367.00;;;18.34;100.00
11011;BME280;5558;42.702;23.178;2023-07-20T02:58:53;93364.00;;;18.26;100.00
11011;BME280;5558;42.702;23.178;2023-07-20T03:01:20;93362.91;;;18.27;100.00
11011;BME280;5558;42.702;23.178;2023-07-20T03:03:46;93369.06;;;18.37;100.00
11011;BME280;5558;42.702;23.178;2023-07-20T03:06:14;93361.78;;;18.46;100.00
11011;BME280;5558;42.702;23.178;2023-07-20T03:08:41;93368.72;;;18.55;100.00
11011;BME280;5558;42.702;23.178;2023-07-20T03:11:12;93368.53;;;18.69;100.00
11011;BME280;5558;42.702;23.178;2023-07-20T03:13:39;93370.06;;;18.78;100.00
11011;BME280;5558;42.702;23.178;2023-07-20T03:16:09;93376.47;;;18.86;100.00
11011;BME280;5558;42.702;23.178;2023-07-20T03:18:36;93372.59;;;18.75;100.00
11011;BME280;5558;42.702;23.178;2023-07-20T03:21:03;93376.97;;;18.79;100.00
11011;BME280;5558;42.702;23.178;2023-07-20T03:23:30;93378.44;;;18.77;100.00
11011;BME280;5558;42.702;23.178;2023-07-20T03:25:56;93374.63;;;18.78;100.00
11011;BME280;5558;42.702;23.178;2023-07-20T03:28:23;93370.63;;;18.92;100.00
11011;BME280;5558;42.702;23.178;2023-07-20T03:30:53;93370.81;;;19.16;100.00
11011;BME280;5558;42.702;23.178;2023-07-20T03:33:21;93378.59;;;19.38;100.00
11011;BME280;5558;42.702;23.178;2023-07-20T03:35:48;93379.84;;;19.70;100.00
11011;BME280;5558;42.702;23.178;2023-07-20T03:38:15;93387.53;;;20.13;100.00
11011;BME280;5558;42.702;23.178;2023-07-20T03:40:49;93376.88;;;20.57;100.00
11011;BME280;5558;42.702;23.178;2023-07-20T03:43:16;93377.88;;;21.10;100.00
11011;BME280;5558;42.702;23.178;2023-07-20T03:45:43;93386.25;;;21.68;100.00
11011;BME280;5558;42.702;23.178;2023-07-20T03:48:11;93387.69;;;22.30;100.00
11011;BME280;5558;42.702;23.178;2023-07-20T03:50:39;93387.66;;;22.85;97.53
11011;BME280;5558;42.702;23.178;2023-07-20T03:53:05;93394.59;;;23.45;91.49
11011;BME280;5558;42.702;23.178;2023-07-20T03:55:32;93406.72;;;24.01;84.00
11011;BME280;5558;42.702;23.178;2023-07-20T03:57:59;93398.97;;;24.57;77.91
11011;BME280;5558;42.702;23.178;2023-07-20T04:00:27;93402.47;;;25.18;74.30
11011;BME280;5558;42.702;23.178;2023-07-20T04:02:53;93394.38;;;25.93;69.34
11011;BME280;5558;42.702;23.178;2023-07-20T04:05:20;93384.81;;;26.58;63.91
11011;BME280;5558;42.702;23.178;2023-07-20T04:07:48;93392.91;;;27.24;59.96
11011;BME280;5558;42.702;23.178;2023-07-20T04:10:16;93391.44;;;27.81;57.04
11011;BME280;5558;42.702;23.178;2023-07-20T04:12:43;93387.91;;;28.38;55.15
11011;BME280;5558;42.702;23.178;2023-07-20T04:15:11;93380.09;;;29.16;52.20
11011;BME280;5558;42.702;23.178;2023-07-20T04:17:38;93378.94;;;29.87;51.01
11011;BME280;5558;42.702;23.178;2023-07-20T04:20:06;93382.41;;;30.30;48.53
11011;BME280;5558;42.702;23.178;2023-07-20T04:22:34;93386.22;;;30.60;46.83
11011;BME280;5558;42.702;23.178;2023-07-20T04:25:02;93380.91;;;31.15;45.43
11011;BME280;5558;42.702;23.178;2023-07-20T04:27:29;93378.00;;;31.98;44.02
11011;BME280;5558;42.702;23.178;2023-07-20T04:29:58;93387.22;;;32.55;41.22
11011;BME280;5558;42.702;23.178;2023-07-20T04:32:25;93389.91;;;33.22;39.06
11011;BME280;5558;42.702;23.178;2023-07-20T04:34:52;93385.09;;;33.83;38.20
11011;BME280;5558;42.702;23.178;2023-07-20T04:37:18;93383.44;;;34.59;36.65
11011;BME280;5558;42.702;23.178;2023-07-20T04:39:45;93372.84;;;34.57;36.67
11011;BME280;5558;42.702;23.178;2023-07-20T04:42:13;93373.59;;;34.15;37.85
11011;BME280;5558;42.702;23.178;2023-07-20T04:44:40;93375.88;;;34.43;37.61
11011;BME280;5558;42.702;23.178;2023-07-20T04:47:07;93371.09;;;33.51;39.75
11011;BME280;5558;42.702;23.178;2023-07-20T04:49:34;93389.28;;;33.11;39.57
11011;BME280;5558;42.702;23.178;2023-07-20T04:52:01;93391.28;;;33.64;38.87
11011;BME280;5558;42.702;23.178;2023-07-20T04:54:29;93385.56;;;34.71;37.97
11011;BME280;5558;42.702;23.178;2023-07-20T04:56:55;93386.97;;;34.79;37.15
11011;BME280;5558;42.702;23.178;2023-07-20T04:59:23;93384.09;;;33.17;39.67
11011;BME280;5558;42.702;23.178;2023-07-20T05:01:50;93388.50;;;34.37;38.57
11011;BME280;5558;42.702;23.178;2023-07-20T05:04:17;93377.13;;;34.78;37.32
11011;BME280;5558;42.702;23.178;2023-07-20T05:06:45;93380.63;;;35.37;36.11
11011;BME280;5558;42.702;23.178;2023-07-20T05:09:11;93383.59;;;35.62;35.42
11011;BME280;5558;42.702;23.178;2023-07-20T05:11:38;93392.56;;;35.30;35.98
11011;BME280;5558;42.702;23.178;2023-07-20T05:14:05;93399.22;;;36.78;34.34
11011;BME280;5558;42.702;23.178;2023-07-20T05:16:33;93400.47;;;37.18;32.53
11011;BME280;5558;42.702;23.178;2023-07-20T05:19:00;93393.38;;;37.58;32.73
11011;BME280;5558;42.702;23.178;2023-07-20T05:21:26;93391.84;;;36.14;33.72
11011;BME280;5558;42.702;23.178;2023-07-20T05:23:53;93402.19;;;36.70;33.27
11011;BME280;5558;42.702;23.178;2023-07-20T05:26:20;93398.94;;;36.59;34.25
11011;BME280;5558;42.702;23.178;2023-07-20T05:28:46;93410.41;;;37.15;32.77
11011;BME280;5558;42.702;23.178;2023-07-20T05:31:13;93411.16;;;36.74;32.99
11011;BME280;5558;42.702;23.178;2023-07-20T05:33:41;93404.72;;;35.69;34.12
11011;BME280;5558;42.702;23.178;2023-07-20T05:36:08;93416.94;;;36.80;32.63
11011;BME280;5558;42.702;23.178;2023-07-20T05:38:35;93423.50;;;37.94;31.48
11011;BME280;5558;42.702;23.178;2023-07-20T05:41:01;93425.56;;;38.74;30.79
11011;BME280;5558;42.702;23.178;2023-07-20T05:43:29;93427.13;;;39.31;28.76
11011;BME280;5558;42.702;23.178;2023-07-20T05:45:56;93432.63;;;39.74;28.43
11011;BME280;5558;42.702;23.178;2023-07-20T05:48:23;93428.88;;;39.98;28.39
11011;BME280;5558;42.702;23.178;2023-07-20T05:50:51;93420.28;;;38.67;29.62
11011;BME280;5558;42.702;23.178;2023-07-20T05:53:19;93410.41;;;37.15;31.75
11011;BME280;5558;42.702;23.178;2023-07-20T05:55:51;93422.78;;;37.64;31.61
11011;BME280;5558;42.702;23.178;2023-07-20T05:58:18;93421.72;;;38.71;29.41
11011;BME280;5558;42.702;23.178;2023-07-20T06:00:47;93417.63;;;37.79;30.62
11011;BME280;5558;42.702;23.178;2023-07-20T06:03:14;93424.09;;;37.47;31.01
11011;BME280;5558;42.702;23.178;2023-07-20T06:05:41;93425.50;;;38.52;30.17
11011;BME280;5558;42.702;23.178;2023-07-20T06:08:09;93418.97;;;38.46;29.69
11011;BME280;5558;42.702;23.178;2023-07-20T06:10:36;93417.63;;;38.63;30.31
11011;BME280;5558;42.702;23.178;2023-07-20T06:13:03;93416.25;;;39.02;29.90
11011;BME280;5558;42.702;23.178;2023-07-20T06:15:32;93409.63;;;40.44;27.28
11011;BME280;5558;42.702;23.178;2023-07-20T06:18:00;93397.59;;;39.89;26.88
11011;BME280;5558;42.702;23.178;2023-07-20T06:20:29;93410.63;;;40.10;27.35
11011;BME280;5558;42.702;23.178;2023-07-20T06:22:56;93414.41;;;40.43;26.67
11011;BME280;5558;42.702;23.178;2023-07-20T06:25:24;93407.53;;;41.11;25.99
11011;BME280;5558;42.702;23.178;2023-07-20T06:27:51;93403.22;;;41.37;25.68
11011;BME280;5558;42.702;23.178;2023-07-20T06:30:17;93406.44;;;40.90;26.67
11011;BME280;5558;42.702;23.178;2023-07-20T06:32:44;93397.06;;;40.21;26.73
11011;BME280;5558;42.702;23.178;2023-07-20T06:35:11;93394.41;;;40.75;26.35
11011;BME280;5558;42.702;23.178;2023-07-20T06:37:38;93395.34;;;41.17;25.75
11011;BME280;5558;42.702;23.178;2023-07-20T06:40:05;93391.63;;;39.69;27.57
11011;BME280;5558;42.702;23.178;2023-07-20T06:42:35;93393.34;;;40.82;25.34
11011;BME280;5558;42.702;23.178;2023-07-20T06:45:02;93398.66;;;41.67;24.95
11011;BME280;5558;42.702;23.178;2023-07-20T06:47:30;93402.75;;;42.22;23.91
11011;BME280;5558;42.702;23.178;2023-07-20T06:49:57;93406.69;;;42.48;23.43
11011;BME280;5558;42.702;23.178;2023-07-20T06:52:24;93413.28;;;42.51;24.07
11011;BME280;5558;42.702;23.178;2023-07-20T06:54:51;93414.97;;;41.23;24.82
11011;BME280;5558;42.702;23.178;2023-07-20T06:57:18;93413.25;;;40.23;26.00
11011;BME280;5558;42.702;23.178;2023-07-20T06:59:46;93399.63;;;38.59;27.93
11011;BME280;5558;42.702;23.178;2023-07-20T07:02:13;93401.53;;;36.66;31.32
11011;BME280;5558;42.702;23.178;2023-07-20T07:04:41;93415.72;;;35.33;33.81
11011;BME280;5558;42.702;23.178;2023-07-20T07:07:07;93420.47;;;33.55;37.22
11011;BME280;5558;42.702;23.178;2023-07-20T07:09:34;93428.53;;;33.05;38.37
11011;BME280;5558;42.702;23.178;2023-07-20T07:12:01;93438.66;;;33.42;38.10
11011;BME280;5558;42.702;23.178;2023-07-20T07:14:28;93442.97;;;33.69;37.67
11011;BME280;5558;42.702;23.178;2023-07-20T07:16:56;93442.44;;;34.54;36.86
11011;BME280;5558;42.702;23.178;2023-07-20T07:19:23;93446.13;;;34.44;36.67
11011;BME280;5558;42.702;23.178;2023-07-20T07:21:49;93458.16;;;34.96;36.11
11011;BME280;5558;42.702;23.178;2023-07-20T07:24:16;93445.53;;;34.56;36.08
11011;BME280;5558;42.702;23.178;2023-07-20T07:26:43;93446.03;;;33.75;37.62
11011;BME280;5558;42.702;23.178;2023-07-20T07:29:10;93440.59;;;33.14;38.43
11011;BME280;5558;42.702;23.178;2023-07-20T07:31:36;93441.22;;;33.25;38.77
11011;BME280;5558;42.702;23.178;2023-07-20T07:34:05;93437.19;;;33.03;39.61
11011;BME280;5558;42.702;23.178;2023-07-20T07:36:31;93440.09;;;32.89;39.27
11011;BME280;5558;42.702;23.178;2023-07-20T07:38:58;93430.06;;;32.35;40.66
11011;BME280;5558;42.702;23.178;2023-07-20T07:41:25;93424.06;;;32.10;41.96
11011;BME280;5558;42.702;23.178;2023-07-20T07:43:52;93417.06;;;32.46;42.38
11011;BME280;5558;42.702;23.178;2023-07-20T07:46:18;93418.38;;;32.68;42.40
11011;BME280;5558;42.702;23.178;2023-07-20T07:48:45;93422.19;;;31.45;45.67
11011;BME280;5558;42.702;23.178;2023-07-20T07:51:13;93431.06;;;30.84;45.37
11011;BME280;5558;42.702;23.178;2023-07-20T07:53:40;93422.59;;;30.22;47.80
11011;BME280;5558;42.702;23.178;2023-07-20T07:56:09;93416.00;;;29.84;50.63
11011;BME280;5558;42.702;23.178;2023-07-20T07:58:35;93430.25;;;29.04;55.89
11011;BME280;5558;42.702;23.178;2023-07-20T08:01:02;93434.00;;;28.64;58.81
11011;BME280;5558;42.702;23.178;2023-07-20T08:03:29;93450.16;;;28.33;63.23
11011;BME280;5558;42.702;23.178;2023-07-20T08:05:56;93459.50;;;28.39;60.42
11011;BME280;5558;42.702;23.178;2023-07-20T08:08:25;93470.59;;;28.13;59.59
11011;BME280;5558;42.702;23.178;2023-07-20T08:10:54;93456.25;;;27.69;59.55
11011;BME280;5558;42.702;23.178;2023-07-20T08:13:21;93441.47;;;27.66;55.29
11011;BME280;5558;42.702;23.178;2023-07-20T08:15:49;93435.53;;;27.57;54.49
11011;BME280;5558;42.702;23.178;2023-07-20T08:18:17;93455.06;;;27.66;54.95
11011;BME280;5558;42.702;23.178;2023-07-20T08:20:44;93443.50;;;27.76;53.38
11011;BME280;5558;42.702;23.178;2023-07-20T08:23:10;93442.31;;;27.77;52.35
11011;BME280;5558;42.702;23.178;2023-07-20T08:25:38;93442.03;;;27.89;53.08
11011;BME280;5558;42.702;23.178;2023-07-20T08:28:09;93456.28;;;28.23;54.01
11011;BME280;5558;42.702;23.178;2023-07-20T08:30:42;93461.50;;;28.49;53.03
11011;BME280;5558;42.702;23.178;2023-07-20T08:33:10;93452.31;;;28.67;49.79
11011;BME280;5558;42.702;23.178;2023-07-20T08:35:37;93450.41;;;28.79;51.67
11011;BME280;5558;42.702;23.178;2023-07-20T08:38:03;93452.84;;;29.05;50.48
11011;BME280;5558;42.702;23.178;2023-07-20T08:40:31;93461.03;;;29.05;49.11
11011;BME280;5558;42.702;23.178;2023-07-20T08:42:59;93463.34;;;29.06;46.38
11011;BME280;5558;42.702;23.178;2023-07-20T08:45:27;93455.28;;;28.48;46.77
11011;BME280;5558;42.702;23.178;2023-07-20T08:47:56;93450.13;;;28.29;47.66
11011;BME280;5558;42.702;23.178;2023-07-20T08:50:26;93457.19;;;28.41;47.64
11011;BME280;5558;42.702;23.178;2023-07-20T08:52:56;93453.06;;;28.03;45.93
11011;BME280;5558;42.702;23.178;2023-07-20T08:55:24;93447.41;;;27.79;46.48
11011;BME280;5558;42.702;23.178;2023-07-20T08:57:53;93439.28;;;27.86;47.29
11011;BME280;5558;42.702;23.178;2023-07-20T09:00:22;93445.91;;;27.88;49.14
11011;BME280;5558;42.702;23.178;2023-07-20T09:02:51;93435.56;;;28.04;48.50
11011;BME280;5558;42.702;23.178;2023-07-20T09:05:18;93447.44;;;28.40;48.11
11011;BME280;5558;42.702;23.178;2023-07-20T09:07:45;93443.41;;;28.81;48.54
11011;BME280;5558;42.702;23.178;2023-07-20T09:10:12;93450.56;;;29.10;47.15
11011;BME280;5558;42.702;23.178;2023-07-20T09:12:41;93441.88;;;28.87;45.56
11011;BME280;5558;42.702;23.178;2023-07-20T09:15:09;93444.59;;;28.91;44.44
11011;BME280;5558;42.702;23.178;2023-07-20T09:17:38;93429.78;;;28.77;44.97
11011;BME280;5558;42.702;23.178;2023-07-20T09:20:06;93431.25;;;28.57;46.94
11011;BME280;5558;42.702;23.178;2023-07-20T09:22:36;93440.22;;;28.68;46.18
11011;BME280;5558;42.702;23.178;2023-07-20T09:25:06;93434.06;;;28.75;45.51
11011;BME280;5558;42.702;23.178;2023-07-20T09:27:37;93443.28;;;28.53;46.52
11011;BME280;5558;42.702;23.178;2023-07-20T09:30:05;93438.56;;;28.46;48.88
11011;BME280;5558;42.702;23.178;2023-07-20T09:32:39;93432.81;;;28.65;45.74
11011;BME280;5558;42.702;23.178;2023-07-20T09:35:10;93436.03;;;28.17;46.21
11011;BME280;5558;42.702;23.178;2023-07-20T09:37:39;93431.66;;;28.02;45.88
11011;BME280;5558;42.702;23.178;2023-07-20T09:40:07;93437.59;;;28.14;46.30
11011;BME280;5558;42.702;23.178;2023-07-20T09:42:35;93437.69;;;28.32;46.10
11011;BME280;5558;42.702;23.178;2023-07-20T09:45:06;93422.78;;;28.80;45.45
11011;BME280;5558;42.702;23.178;2023-07-20T09:47:35;93399.47;;;28.97;40.93
11011;BME280;5558;42.702;23.178;2023-07-20T09:50:05;93406.59;;;29.40;42.74
11011;BME280;5558;42.702;23.178;2023-07-20T09:52:37;93388.66;;;29.63;38.96
11011;BME280;5558;42.702;23.178;2023-07-20T09:55:06;93385.97;;;29.81;39.59
11011;BME280;5558;42.702;23.178;2023-07-20T09:57:33;93393.38;;;30.12;39.56
11011;BME280;5558;42.702;23.178;2023-07-20T10:00:00;93385.09;;;30.47;39.44
11011;BME280;5558;42.702;23.178;2023-07-20T10:02:32;93380.78;;;30.46;38.18
11011;BME280;5558;42.702;23.178;2023-07-20T10:05:02;93396.75;;;30.58;38.31
11011;BME280;5558;42.702;23.178;2023-07-20T10:07:30;93405.69;;;30.76;38.53
11011;BME280;5558;42.702;23.178;2023-07-20T10:10:00;93402.63;;;30.60;38.18
11011;BME280;5558;42.702;23.178;2023-07-20T10:12:29;93405.28;;;30.78;39.12
11011;BME280;5558;42.702;23.178;2023-07-20T10:15:02;93413.75;;;31.12;38.04
11011;BME280;5558;42.702;23.178;2023-07-20T10:17:30;93427.44;;;31.08;37.06
11011;BME280;5558;42.702;23.178;2023-07-20T10:19:58;93407.53;;;31.00;38.11
11011;BME280;5558;42.702;23.178;2023-07-20T10:22:34;93413.84;;;30.90;37.38
11011;BME280;5558;42.702;23.178;2023-07-20T10:25:02;93391.97;;;30.94;37.84
11011;BME280;5558;42.702;23.178;2023-07-20T10:27:30;93388.81;;;30.99;37.74
11011;BME280;5558;42.702;23.178;2023-07-20T10:29:57;93383.63;;;31.19;38.50
11011;BME280;5558;42.702;23.178;2023-07-20T10:32:27;93393.34;;;31.27;37.93
11011;BME280;5558;42.702;23.178;2023-07-20T10:34:56;93401.06;;;31.46;38.14
11011;BME280;5558;42.702;23.178;2023-07-20T10:37:49;93340.56;;;31.30;37.89
11011;BME280;5558;42.702;23.178;2023-07-20T10:40:31;93277.59;;;29.81;42.14
11011;BME280;5558;42.702;23.178;2023-07-20T10:42:59;93328.22;;;30.07;49.79
11011;BME280;5558;42.702;23.178;2023-07-20T10:45:48;93358.63;;;30.23;49.57
11011;BME280;5558;42.702;23.178;2023-07-20T10:48:17;93355.75;;;30.62;48.40
11011;BME280;5558;42.702;23.178;2023-07-20T10:51:08;93336.88;;;30.95;44.93
11011;BME280;5558;42.702;23.178;2023-07-20T10:53:34;93327.25;;;31.35;40.44
11011;BME280;5558;42.702;23.178;2023-07-20T10:56:08;93322.38;;;31.60;40.75
11011;BME280;5558;42.702;23.178;2023-07-20T10:58:38;93335.78;;;31.92;40.64
11011;BME280;5558;42.702;23.178;2023-07-20T11:01:05;93325.72;;;32.19;37.78
11011;BME280;5558;42.702;23.178;2023-07-20T11:03:33;93332.44;;;32.52;37.51
11011;BME280;5558;42.702;23.178;2023-07-20T11:06:30;93324.38;;;32.68;36.32
11011;BME280;5558;42.702;23.178;2023-07-20T11:09:09;93325.66;;;32.60;36.98
11011;BME280;5558;42.702;23.178;2023-07-20T11:11:40;93326.28;;;32.41;38.61
11011;BME280;5558;42.702;23.178;2023-07-20T11:14:08;93319.69;;;31.97;38.63
11011;BME280;5558;42.702;23.178;2023-07-20T11:16:40;93311.75;;;31.69;39.15
11011;BME280;5558;42.702;23.178;2023-07-20T11:19:14;93313.41;;;31.01;40.29
11011;BME280;5558;42.702;23.178;2023-07-20T11:21:45;93308.78;;;30.95;39.87
11011;BME280;5558;42.702;23.178;2023-07-20T11:24:13;93305.00;;;31.30;40.88
11011;BME280;5558;42.702;23.178;2023-07-20T11:26:43;93304.13;;;31.43;40.88
11011;BME280;5558;42.702;23.178;2023-07-20T11:29:10;93308.22;;;31.69;40.97
11011;BME280;5558;42.702;23.178;2023-07-20T11:31:38;93308.56;;;31.74;39.41
11011;BME280;5558;42.702;23.178;2023-07-20T11:34:05;93299.97;;;31.72;40.46
11011;BME280;5558;42.702;23.178;2023-07-20T11:36:33;93295.13;;;31.90;38.25
11011;BME280;5558;42.702;23.178;2023-07-20T11:39:00;93286.91;;;31.90;38.20
11011;BME280;5558;42.702;23.178;2023-07-20T11:41:31;93287.25;;;31.96;39.15
11011;BME280;5558;42.702;23.178;2023-07-20T11:43:58;93285.53;;;32.09;39.46
11011;BME280;5558;42.702;23.178;2023-07-20T11:46:25;93265.97;;;32.07;38.56
11011;BME280;5558;42.702;23.178;2023-07-20T11:48:56;93281.38;;;31.94;38.15
11011;BME280;5558;42.702;23.178;2023-07-20T11:51:24;93278.56;;;31.60;39.10
11011;BME280;5558;42.702;23.178;2023-07-20T11:53:51;93273.81;;;31.68;38.62
11011;BME280;5558;42.702;23.178;2023-07-20T11:56:18;93268.16;;;31.89;37.96
11011;BME280;5558;42.702;23.178;2023-07-20T11:58:46;93277.03;;;32.00;37.50
11011;BME280;5558;42.702;23.178;2023-07-20T12:01:13;93264.97;;;31.94;36.95
11011;BME280;5558;42.702;23.178;2023-07-20T12:03:42;93263.34;;;32.00;34.85
11011;BME280;5558;42.702;23.178;2023-07-20T12:06:09;93262.16;;;32.01;35.71
11011;BME280;5558;42.702;23.178;2023-07-20T12:08:38;93262.09;;;32.04;35.01
11011;BME280;5558;42.702;23.178;2023-07-20T12:11:05;93254.22;;;32.10;36.33
11011;BME280;5558;42.702;23.178;2023-07-20T12:13:36;93261.88;;;32.22;35.33
11011;BME280;5558;42.702;23.178;2023-07-20T12:16:09;93257.75;;;32.07;32.80
11011;BME280;5558;42.702;23.178;2023-07-20T12:18:37;93254.53;;;31.78;31.15
11011;BME280;5558;42.702;23.178;2023-07-20T12:21:05;93262.88;;;31.68;30.94
11011;BME280;5558;42.702;23.178;2023-07-20T12:23:35;93263.00;;;31.54;31.72
11011;BME280;5558;42.702;23.178;2023-07-20T12:26:03;93250.28;;;31.33;31.83
11011;BME280;5558;42.702;23.178;2023-07-20T12:28:32;93250.63;;;31.39;32.06
11011;BME280;5558;42.702;23.178;2023-07-20T12:30:59;93239.69;;;31.39;32.45
11011;BME280;5558;42.702;23.178;2023-07-20T12:33:27;93244.03;;;31.33;32.32
11011;BME280;5558;42.702;23.178;2023-07-20T12:35:53;93244.41;;;31.35;31.67
11011;BME280;5558;42.702;23.178;2023-07-20T12:38:21;93229.78;;;31.52;32.20
11011;BME280;5558;42.702;23.178;2023-07-20T12:40:49;93227.97;;;31.75;32.16
11011;BME280;5558;42.702;23.178;2023-07-20T12:43:16;93236.97;;;31.76;33.86
11011;BME280;5558;42.702;23.178;2023-07-20T12:45:43;93233.63;;;31.58;33.71
11011;BME280;5558;42.702;23.178;2023-07-20T12:48:09;93231.59;;;31.65;34.95
11011;BME280;5558;42.702;23.178;2023-07-20T12:50:37;93232.31;;;31.73;35.94
11011;BME280;5558;42.702;23.178;2023-07-20T12:53:04;93235.63;;;31.54;35.13
11011;BME280;5558;42.702;23.178;2023-07-20T12:55:32;93227.59;;;31.29;35.74
11011;BME280;5558;42.702;23.178;2023-07-20T12:57:59;93201.47;;;31.25;36.32
11011;BME280;5558;42.702;23.178;2023-07-20T13:00:25;93221.34;;;31.36;36.31
11011;BME280;5558;42.702;23.178;2023-07-20T13:02:52;93217.34;;;31.44;36.99
11011;BME280;5558;42.702;23.178;2023-07-20T13:05:19;93217.84;;;31.35;37.02
11011;BME280;5558;42.702;23.178;2023-07-20T13:07:47;93222.38;;;31.49;37.87